Date,TemperatureHighF,TemperatureAvgF,TemperatureLowF,DewpointHighF,DewpointAvgF,DewpointLowF,HumidityHigh,HumidityAvg,HumidityLow,PressureMaxIn,PressureMinIn,WindSpeedMaxMPH,WindSpeedAvgMPH,GustSpeedMaxMPH,PrecipitationSumIn
2013-2-1,63.6,46.5,27.0,38.3,29.5,22.1,83,54,28,30.36,30.09,11,3,16,0.00
2013-2-2,67.5,49.2,30.9,39.3,33.2,25.6,84,58,26,30.33,30.09,11,3,29,0.00
2013-2-3,70.2,47.9,25.7,38.7,27.3,21.2,92,55,16,30.33,29.92,15,4,19,0.00
2013-2-4,77.0,62.0,44.1,50.8,44.9,36.1,82,56,30,29.92,29.72,18,6,21,0.00
2013-2-5,70.1,49.9,31.4,53.2,42.2,28.2,97,76,42,30.00,29.86,8,1,11,0.00
2013-2-6,77.2,64.1,56.0,57.9,56.2,54.7,97,78,47,29.97,29.74,16,6,18,0.00
2013-2-7,69.2,59.6,45.1,58.2,49.5,38.0,91,71,42,30.15,29.76,19,8,25,0.00
2013-2-8,63.9,46.3,24.8,38.0,25.6,13.7,95,52,14,30.27,30.08,11,2,14,0.00
2013-2-9,62.3,54.1,48.0,59.5,48.2,27.5,95,81,44,30.08,29.63,19,9,25,0.00
2013-2-10,66.9,52.1,34.2,59.3,32.8,21.0,93,53,18,29.98,29.67,16,5,22,0.48
2013-2-11,56.4,47.8,34.0,39.7,34.0,28.5,82,60,43,30.13,29.96,13,5,17,0.00
2013-2-12,50.4,44.2,38.0,46.4,41.3,34.5,96,90,78,30.12,29.85,20,5,20,0.23
2013-2-13,60.9,43.1,28.2,39.3,32.0,24.6,96,70,26,30.16,30.01,10,2,16,0.00
2013-2-14,70.0,54.5,39.0,36.5,31.0,24.0,67,44,18,30.09,29.94,13,4,18,0.00
2013-2-15,51.4,42.4,24.9,37.0,28.0,16.8,87,59,27,30.41,30.09,17,5,20,0.00
2013-2-16,62.7,42.0,23.4,34.2,27.0,19.9,88,59,26,30.44,30.12,11,2,17,0.00
2013-2-17,74.0,58.6,45.1,45.8,31.4,24.0,67,38,16,30.12,29.77,21,10,28,0.00
2013-2-18,69.2,56.7,31.7,52.5,39.9,27.1,85,57,27,30.12,29.67,28,10,28,0.00
2013-2-19,61.6,45.8,26.4,40.3,27.2,19.6,90,56,21,30.29,30.10,16,4,21,0.09
2013-2-20,46.2,43.8,42.5,40.8,39.5,38.2,92,85,76,30.14,29.69,21,8,25,0.23
2013-2-21,62.9,49.6,34.4,46.1,38.4,29.2,96,70,31,29.96,29.52,28,9,32,0.22
2013-2-22,50.3,35.9,25.6,29.9,25.7,21.2,90,68,41,30.16,29.96,11,3,16,0.00
2013-2-23,61.4,41.0,22.2,34.8,28.6,20.2,94,66,27,30.13,29.86,12,2,15,0.00
2013-2-24,72.0,52.4,38.7,46.8,38.1,31.5,76,60,39,29.87,29.54,19,8,24,0.00
2013-2-25,59.6,43.5,35.3,52.7,38.0,32.0,92,81,63,29.81,29.47,30,13,34,0.10
2013-2-26,57.7,42.4,33.2,35.0,30.8,27.7,85,66,35,29.94,29.81,17,5,26,0.00
2013-2-27,55.9,40.2,27.7,32.2,27.8,21.6,91,67,27,30.28,29.87,20,5,25,0.00
2013-2-28,58.8,42.2,20.7,32.4,26.4,18.2,95,59,27,30.36,30.22,16,4,18,0.00